Time;durP1;ratioP1;P1;durP2;ratioP2;P2;SDS_P1;SDS_P2;PMS_P1;PMS_P2;Temp;Humidity;BMP_temperature;BMP_pressure;BME280_temperature;BME280_humidity;BME280_pressure;Samples;Min_cycle;Max_cycle;Signal;HPM_P1;HPM_P2
2024/03/31 05:16:56;;;;;;;23.13;4.63;;;9.60;92.70;;;;;;4613425;23;20065;-86
2024/03/31 05:18:57;;;;;;;21.27;4.97;;;9.50;92.20;;;;;;4097408;29;20055;-86
2024/03/31 05:21:01;;;;;;;23.23;5.03;;;9.50;92.30;;;;;;4131077;28;20081;-85
2024/03/31 05:23:02;;;;;;;23.02;4.70;;;9.50;92.40;;;;;;4133239;28;20058;-86
2024/03/31 05:25:05;;;;;;;23.77;4.82;;;9.50;92.20;;;;;;4133114;28;20061;-87
2024/03/31 05:27:06;;;;;;;21.67;4.82;;;9.50;92.00;;;;;;4113988;28;20086;-84
2024/03/31 05:29:08;;;;;;;21.23;4.60;;;9.40;92.10;;;;;;4114418;28;20508;-80
2024/03/31 05:31:08;;;;;;;20.55;4.72;;;9.30;92.40;;;;;;4109953;28;20047;-81
2024/03/31 05:33:13;;;;;;;22.52;4.47;;;9.30;92.50;;;;;;4107679;28;20057;-83
2024/03/31 05:35:14;;;;;;;19.90;4.10;;;9.40;92.60;;;;;;4113828;28;20051;-80
2024/03/31 05:37:16;;;;;;;24.55;4.50;;;9.40;92.40;;;;;;4110573;28;20439;-79
2024/03/31 05:39:17;;;;;;;19.38;4.13;;;9.50;92.30;;;;;;4115742;28;20054;-80
2024/03/31 05:41:18;;;;;;;18.52;4.22;;;9.50;92.20;;;;;;4113555;28;20043;-79
2024/03/31 05:43:19;;;;;;;19.40;3.85;;;9.50;92.20;;;;;;4114877;28;20054;-80
2024/03/31 05:45:21;;;;;;;16.83;3.67;;;9.50;92.10;;;;;;4115319;28;20136;-81
2024/03/31 05:47:22;;;;;;;16.70;3.60;;;9.50;92.10;;;;;;4110557;28;20051;-80
2024/03/31 05:49:26;;;;;;;21.45;4.10;;;9.40;92.20;;;;;;4112517;28;20531;-82
2024/03/31 05:51:26;;;;;;;19.30;3.92;;;9.40;92.30;;;;;;4106745;28;20054;-79
2024/03/31 05:53:27;;;;;;;20.85;4.15;;;9.20;92.50;;;;;;4127090;28;20047;-81
2024/03/31 05:55:29;;;;;;;21.80;4.50;;;9.00;92.80;;;;;;4118576;28;20062;-79
2024/03/31 05:57:30;;;;;;;25.00;4.43;;;8.80;93.50;;;;;;4109559;28;20051;-80
2024/03/31 05:59:32;;;;;;;20.42;4.18;;;8.90;93.50;;;;;;4100636;28;20059;-79
2024/03/31 06:01:33;;;;;;;21.48;4.72;;;9.00;93.30;;;;;;4109665;28;20051;-80
2024/03/31 06:03:35;;;;;;;21.27;4.20;;;9.10;93.10;;;;;;4102361;28;20391;-79
2024/03/31 06:05:37;;;;;;;17.42;3.67;;;9.10;93.00;;;;;;4104577;28;20058;-82
2024/03/31 06:09:50;;;;;;;19.25;4.20;;;9.30;92.80;;;;;;3462877;23;20530;-76
2024/03/31 06:11:50;;;;;;;15.45;4.10;;;9.30;92.70;;;;;;4103364;29;20110;-78
2024/03/31 06:13:52;;;;;;;18.75;4.63;;;9.40;92.60;;;;;;4091399;28;20460;-77
2024/03/31 06:15:53;;;;;;;18.77;4.05;;;9.40;92.50;;;;;;4098540;29;20059;-80
2024/03/31 06:17:55;;;;;;;17.63;3.83;;;9.40;92.40;;;;;;4102827;29;20539;-77
2024/03/31 06:19:56;;;;;;;15.38;3.75;;;9.50;92.40;;;;;;4102946;29;20106;-78
2024/03/31 06:21:59;;;;;;;24.05;4.53;;;9.50;92.40;;;;;;4102963;29;20476;-76
2024/03/31 06:24:00;;;;;;;23.67;4.63;;;9.50;92.50;;;;;;4094250;29;20047;-78
2024/03/31 06:26:03;;;;;;;25.42;4.75;;;9.50;92.50;;;;;;4095359;29;20048;-78
2024/03/31 06:28:04;;;;;;;17.92;4.07;;;9.50;92.50;;;;;;4102880;29;20079;-78
2024/03/31 06:30:07;;;;;;;16.52;4.05;;;9.40;92.70;;;;;;4103029;29;20050;-79
2024/03/31 06:32:08;;;;;;;29.58;4.75;;;9.50;92.70;;;;;;4102342;29;20138;-80
2024/03/31 06:34:10;;;;;;;17.60;3.75;;;9.50;92.60;;;;;;4093547;29;20408;-78
2024/03/31 06:36:11;;;;;;;18.73;4.13;;;9.60;92.60;;;;;;4092290;28;20048;-78
2024/03/31 06:38:14;;;;;;;19.75;5.05;;;9.60;92.50;;;;;;4102649;29;20051;-79
2024/03/31 06:40:15;;;;;;;20.85;4.00;;;9.60;92.50;;;;;;4094530;29;20102;-80
2024/03/31 06:42:31;;;;;;;17.90;4.07;;;9.60;92.80;;;;;;4104060;29;20051;-76
2024/03/31 06:44:32;;;;;;;22.92;4.60;;;9.70;93.00;;;;;;4089890;29;20043;-79
2024/03/31 06:46:34;;;;;;;23.85;4.60;;;9.70;93.30;;;;;;4103489;29;20055;-77
2024/03/31 06:48:35;;;;;;;20.67;4.65;;;9.70;93.50;;;;;;4101366;29;20055;-78
2024/03/31 06:50:37;;;;;;;21.75;4.80;;;9.70;93.60;;;;;;4102972;29;20512;-77
2024/03/31 06:52:42;;;;;;;18.95;4.93;;;9.70;93.70;;;;;;4034907;29;20071;-77
2024/03/31 06:54:45;;;;;;;17.25;4.80;;;9.70;93.80;;;;;;4085916;29;20102;-79
2024/03/31 06:56:47;;;;;;;21.77;4.70;;;9.80;93.80;;;;;;4086527;29;20054;-78
2024/03/31 06:58:48;;;;;;;20.90;4.55;;;9.80;93.80;;;;;;4086476;29;20475;-77
2024/03/31 07:00:55;;;;;;;18.33;4.72;;;9.80;93.50;;;;;;4086352;29;20044;-78
2024/03/31 07:02:57;;;;;;;26.88;5.05;;;9.80;93.40;;;;;;4084783;29;20052;-77
2024/03/31 07:05:00;;;;;;;22.20;4.78;;;9.80;93.40;;;;;;4086652;29;20489;-76
2024/03/31 07:07:02;;;;;;;21.95;5.18;;;9.80;93.50;;;;;;4086922;29;20135;-77
2024/03/31 07:09:03;;;;;;;25.27;5.65;;;9.60;93.60;;;;;;4100443;29;20504;-76
2024/03/31 07:11:06;;;;;;;18.08;5.07;;;9.60;93.80;;;;;;4102242;28;20055;-77
2024/03/31 07:13:07;;;;;;;19.30;5.07;;;9.70;93.70;;;;;;4102249;29;20047;-79
2024/03/31 07:15:08;;;;;;;26.92;5.45;;;9.70;93.70;;;;;;4102285;29;20109;-77
2024/03/31 07:17:10;;;;;;;21.58;5.78;;;9.50;94.00;;;;;;4102430;28;20047;-85
2024/03/31 07:19:11;;;;;;;26.15;5.10;;;9.40;94.30;;;;;;4091355;29;20051;-87
2024/03/31 07:21:12;;;;;;;22.45;5.35;;;9.50;94.60;;;;;;4080239;29;20081;-85
2024/03/31 07:23:14;;;;;;;20.75;5.70;;;9.60;94.20;;;;;;4093080;29;20047;-84
2024/03/31 07:25:16;;;;;;;23.85;5.28;;;9.70;94.20;;;;;;4093452;29;20047;-85
2024/03/31 07:27:19;;;;;;;18.77;5.72;;;9.80;94.10;;;;;;4093838;29;20052;-84
2024/03/31 07:29:20;;;;;;;27.98;6.57;;;9.70;94.30;;;;;;4104789;29;20083;-84
2024/03/31 07:31:23;;;;;;;28.45;7.55;;;9.80;94.50;;;;;;4073236;29;20044;-87
2024/03/31 07:33:24;;;;;;;30.65;7.85;;;9.80;94.70;;;;;;4073296;29;20044;-84
2024/03/31 07:35:26;;;;;;;20.67;6.00;;;9.90;94.60;;;;;;4088605;29;20059;-85
2024/03/31 07:37:27;;;;;;;29.63;9.88;;;10.00;94.50;;;;;;4101014;29;20047;-85
2024/03/31 07:39:29;;;;;;;25.58;6.40;;;10.20;94.30;;;;;;4091198;29;20106;-84
2024/03/31 07:41:30;;;;;;;21.02;5.05;;;10.30;94.10;;;;;;4089148;29;20073;-90
2024/03/31 07:43:34;;;;;;;17.42;4.18;;;10.30;94.10;;;;;;4090498;29;20052;-89
2024/03/31 07:45:35;;;;;;;21.92;5.72;;;10.30;94.00;;;;;;4091047;29;20060;-88
2024/03/31 07:47:37;;;;;;;21.90;5.35;;;10.40;93.70;;;;;;4090141;29;20536;-89
2024/03/31 07:49:38;;;;;;;19.90;4.93;;;10.50;93.80;;;;;;4072174;29;20506;-86
2024/03/31 07:51:40;;;;;;;20.90;5.20;;;10.50;93.70;;;;;;4090118;29;20110;-88
2024/03/31 07:53:40;;;;;;;21.52;5.28;;;10.60;93.90;;;;;;4071584;29;20060;-87
2024/03/31 07:55:42;;;;;;;23.98;5.10;;;10.70;93.80;;;;;;4086292;29;20062;-79
2024/03/31 07:57:43;;;;;;;22.85;5.70;;;10.70;93.60;;;;;;4085984;29;20056;-79
2024/03/31 07:59:48;;;;;;;25.00;5.65;;;10.80;93.50;;;;;;4101586;29;20047;-78
2024/03/31 08:01:49;;;;;;;22.90;5.07;;;10.80;93.40;;;;;;4103499;29;20086;-77
2024/03/31 08:03:51;;;;;;;24.00;5.55;;;10.90;93.40;;;;;;4088333;29;20103;-78
2024/03/31 08:05:53;;;;;;;19.23;4.65;;;10.90;93.10;;;;;;4087090;29;20063;-77
2024/03/31 08:07:55;;;;;;;28.85;5.05;;;11.00;93.20;;;;;;4086822;29;20400;-80
2024/03/31 08:09:56;;;;;;;17.45;4.78;;;11.00;93.10;;;;;;4101122;28;20077;-77
2024/03/31 08:11:58;;;;;;;29.45;5.28;;;11.10;93.30;;;;;;4085065;29;20126;-77
2024/03/31 08:13:59;;;;;;;26.60;4.90;;;11.10;93.40;;;;;;4086179;29;20055;-81
2024/03/31 08:16:03;;;;;;;24.23;4.47;;;11.10;93.30;;;;;;4087118;29;20059;-83
2024/03/31 08:18:06;;;;;;;19.30;4.40;;;11.20;93.50;;;;;;4081430;29;20578;-83
2024/03/31 08:20:08;;;;;;;22.05;5.18;;;11.30;93.40;;;;;;4086858;29;20135;-80
2024/03/31 08:22:10;;;;;;;20.83;4.60;;;11.40;93.40;;;;;;4090223;29;20066;-80
2024/03/31 08:24:12;;;;;;;18.30;4.53;;;11.60;93.20;;;;;;4090152;29;20104;-80
2024/03/31 08:26:13;;;;;;;16.83;4.30;;;11.60;93.00;;;;;;4090734;29;20044;-81
2024/03/31 08:28:16;;;;;;;24.17;4.95;;;11.70;92.60;;;;;;4091887;29;20047;-79
2024/03/31 08:30:17;;;;;;;19.73;5.07;;;11.80;92.60;;;;;;4079163;29;20047;-79
2024/03/31 08:32:21;;;;;;;22.98;4.40;;;11.90;92.40;;;;;;4078586;29;20446;-81
2024/03/31 08:34:22;;;;;;;24.25;5.22;;;11.90;92.10;;;;;;4086351;29;20126;-79
2024/03/31 08:36:24;;;;;;;23.00;5.05;;;12.00;92.10;;;;;;4082778;29;20055;-82
2024/03/31 08:38:26;;;;;;;22.98;5.10;;;12.00;91.90;;;;;;4086363;29;20044;-79
2024/03/31 08:40:33;;;;;;;20.33;5.05;;;12.10;92.00;;;;;;4086422;29;20052;-78
2024/03/31 08:42:43;;;;;;;23.30;5.45;;;12.20;91.80;;;;;;4090706;29;20047;-90
2024/03/31 08:44:47;;;;;;;21.80;4.85;;;12.30;92.00;;;;;;4110283;29;20105;-84
2024/03/31 08:46:49;;;;;;;23.98;4.13;;;12.30;91.50;;;;;;4092233;29;20050;-86
2024/03/31 08:48:54;;;;;;;24.50;4.00;;;12.40;91.60;;;;;;4095493;29;20047;-86
2024/03/31 08:50:56;;;;;;;23.17;4.15;;;12.40;91.60;;;;;;4092629;29;20512;-86
2024/03/31 08:53:06;;;;;;;16.95;3.47;;;12.50;91.30;;;;;;4089385;29;20067;-86
2024/03/31 08:55:11;;;;;;;23.45;3.63;;;12.60;91.10;;;;;;4064576;29;20060;-87
2024/03/31 08:57:14;;;;;;;24.33;3.33;;;12.60;91.00;;;;;;4082464;29;20091;-89
2024/03/31 08:59:15;;;;;;;19.10;3.22;;;12.70;90.20;;;;;;4065627;29;20049;-87
2024/03/31 09:01:22;;;;;;;20.42;3.42;;;12.80;89.90;;;;;;4079277;29;20059;-88
2024/03/31 09:03:25;;;;;;;12.38;2.85;;;12.90;89.60;;;;;;4084218;29;20084;-89
2024/03/31 09:05:31;;;;;;;20.30;3.13;;;12.90;89.00;;;;;;4083293;29;20151;-88
2024/03/31 09:07:32;;;;;;;;;;;13.00;88.60;;;;;;4082356;29;20462;-87
2024/03/31 09:09:35;;;;;;;16.80;3.17;;;13.00;88.00;;;;;;4079174;29;19987;-86
2024/03/31 09:11:36;;;;;;;19.38;3.10;;;13.10;87.40;;;;;;4078100;29;20058;-86
2024/03/31 09:13:39;;;;;;;17.88;3.17;;;13.20;87.20;;;;;;4086994;29;20078;-87
2024/03/31 09:15:41;;;;;;;18.45;3.55;;;13.30;87.10;;;;;;4092332;29;20066;-87
2024/03/31 09:17:43;;;;;;;22.27;3.60;;;13.30;86.80;;;;;;4091980;29;20055;-86
2024/03/31 09:19:48;;;;;;;18.17;2.92;;;13.40;86.10;;;;;;4090640;29;20053;-88
2024/03/31 09:21:53;;;;;;;22.65;3.13;;;13.50;85.70;;;;;;4092184;29;20083;-86
2024/03/31 09:23:54;;;;;;;19.85;3.25;;;13.50;86.00;;;;;;4091555;29;20051;-88
2024/03/31 09:26:00;;;;;;;18.98;2.95;;;13.60;85.90;;;;;;4091800;29;20068;-88
2024/03/31 09:28:02;;;;;;;22.08;3.40;;;13.60;85.10;;;;;;4094123;29;20052;-88
2024/03/31 09:30:09;;;;;;;20.73;3.42;;;13.70;84.90;;;;;;4091674;29;20060;-88
2024/03/31 09:32:14;;;;;;;16.83;3.63;;;13.70;84.30;;;;;;4095130;29;20056;-90
2024/03/31 09:34:17;;;;;;;22.88;3.15;;;13.80;84.20;;;;;;4096571;29;20079;-87
2024/03/31 09:36:19;;;;;;;17.70;3.38;;;13.90;83.70;;;;;;4092719;29;20054;-88
2024/03/31 09:38:31;;;;;;;17.45;3.00;;;14.00;82.70;;;;;;4096414;29;20086;-88
2024/03/31 09:40:32;;;;;;;23.23;3.80;;;14.00;82.10;;;;;;4094780;29;20051;-88
2024/03/31 09:42:46;;;;;;;19.30;3.60;;;14.10;82.50;;;;;;4103163;29;20052;-89
2024/03/31 09:44:48;;;;;;;28.10;3.50;;;14.20;81.60;;;;;;4086943;29;20056;-85
2024/03/31 09:46:56;;;;;;;19.67;3.40;;;14.30;81.60;;;;;;4086835;29;20059;-89
2024/03/31 09:49:03;;;;;;;23.85;4.20;;;14.30;81.50;;;;;;4101894;29;20061;-85
2024/03/31 09:51:23;;;;;;;34.42;8.50;;;14.30;81.10;;;;;;4102626;29;20059;-90
2024/03/31 09:53:29;;;;;;;24.38;7.60;;;14.40;80.70;;;;;;4090465;29;20051;-86
2024/03/31 09:55:39;;;;;;;24.88;4.30;;;14.40;80.60;;;;;;4095261;29;20059;-88
2024/03/31 09:57:43;;;;;;;17.83;3.33;;;14.40;79.90;;;;;;4061712;29;20454;-87
2024/03/31 09:59:56;;;;;;;19.60;3.65;;;14.40;80.00;;;;;;4090759;29;20066;-89
2024/03/31 10:01:59;;;;;;;21.80;3.40;;;14.50;80.00;;;;;;4091942;29;20501;-88
2024/03/31 10:04:11;;;;;;;19.27;3.47;;;14.50;79.30;;;;;;4093547;29;20059;-87
2024/03/31 10:06:14;;;;;;;22.73;3.50;;;14.60;79.40;;;;;;4076892;29;20409;-88
2024/03/31 10:08:16;;;;;;;17.45;3.17;;;14.60;79.10;;;;;;4092461;29;20139;-89
2024/03/31 10:10:20;;;;;;;29.65;4.28;;;14.70;79.10;;;;;;4093424;29;20062;-89
2024/03/31 10:12:24;;;;;;;26.58;3.85;;;14.80;79.10;;;;;;4093359;29;20055;-86
2024/03/31 10:14:26;;;;;;;19.58;3.10;;;14.80;78.30;;;;;;4092352;29;20051;-89
2024/03/31 10:16:29;;;;;;;26.13;3.20;;;14.80;77.80;;;;;;4094304;29;20050;-90
2024/03/31 10:18:33;;;;;;;19.15;3.25;;;14.90;78.60;;;;;;4076702;29;20136;-89
2024/03/31 10:20:35;;;;;;;21.02;3.30;;;15.00;77.90;;;;;;4092536;29;20056;-90
2024/03/31 10:22:38;;;;;;;17.90;3.47;;;15.00;77.80;;;;;;4092545;29;20051;-88
2024/03/31 10:24:41;;;;;;;20.55;3.95;;;15.10;76.80;;;;;;4091279;29;20052;-88
2024/03/31 10:26:47;;;;;;;19.67;2.97;;;15.10;76.90;;;;;;4095162;29;20070;-89
2024/03/31 10:28:50;;;;;;;19.85;3.55;;;15.10;76.50;;;;;;4091542;29;20048;-89
2024/03/31 10:30:52;;;;;;;22.95;3.15;;;15.20;77.60;;;;;;4087993;29;20051;-88
2024/03/31 10:32:53;;;;;;;29.20;3.70;;;15.30;76.30;;;;;;4090005;29;20054;-87
2024/03/31 10:34:55;;;;;;;24.02;3.30;;;15.40;76.90;;;;;;4089036;29;20532;-87
2024/03/31 10:36:57;;;;;;;21.80;3.47;;;15.40;76.60;;;;;;4090230;29;20055;-89
2024/03/31 10:38:59;;;;;;;18.38;3.53;;;15.50;76.20;;;;;;4089835;29;20052;-91
2024/03/31 10:41:01;;;;;;;22.05;3.28;;;15.60;76.20;;;;;;4089591;29;20107;-90
2024/03/31 10:43:08;;;;;;;19.98;2.97;;;15.60;76.30;;;;;;4089309;29;20055;-90
2024/03/31 10:45:10;;;;;;;22.63;3.47;;;15.70;76.10;;;;;;4089295;29;20142;-86
2024/03/31 10:47:15;;;;;;;21.25;3.33;;;15.70;76.70;;;;;;4090386;29;20055;-90
2024/03/31 10:49:16;;;;;;;16.75;2.65;;;15.70;76.30;;;;;;4091025;29;20058;-90
2024/03/31 10:51:19;;;;;;;27.20;3.58;;;15.70;75.50;;;;;;4091635;29;20047;-88
2024/03/31 10:53:25;;;;;;;24.08;4.05;;;15.80;75.10;;;;;;4089762;29;20068;-90
2024/03/31 10:55:30;;;;;;;18.25;3.00;;;15.80;75.20;;;;;;4089113;29;20497;-88
2024/03/31 10:57:35;;;;;;;19.73;3.55;;;15.80;74.90;;;;;;4089271;29;20055;-88
2024/03/31 10:59:41;;;;;;;16.70;3.15;;;15.80;74.20;;;;;;4089308;29;20052;-88
2024/03/31 11:01:42;;;;;;;13.68;3.17;;;15.80;74.30;;;;;;4091535;29;20062;-90
2024/03/31 11:03:46;;;;;;;19.98;3.33;;;15.90;74.50;;;;;;4093127;29;20056;-86
2024/03/31 11:05:47;;;;;;;18.35;3.53;;;15.90;73.90;;;;;;4104566;29;20052;-86
2024/03/31 11:07:54;;;;;;;20.92;3.78;;;15.90;73.00;;;;;;4098150;29;20075;-88
2024/03/31 11:09:56;;;;;;;19.60;3.10;;;15.90;72.70;;;;;;4089741;29;20553;-87
2024/03/31 11:11:58;;;;;;;19.85;3.25;;;16.00;72.80;;;;;;4092393;29;20059;-89
2024/03/31 11:14:00;;;;;;;22.60;3.65;;;16.10;73.20;;;;;;4092730;29;20060;-90
2024/03/31 11:16:07;;;;;;;19.00;3.25;;;16.10;72.70;;;;;;4090700;29;20047;-86
2024/03/31 11:18:08;;;;;;;19.75;3.08;;;16.20;73.20;;;;;;4089294;29;20054;-89
2024/03/31 11:20:14;;;;;;;18.92;3.30;;;16.20;73.10;;;;;;4091392;29;20075;-88
2024/03/31 11:22:15;;;;;;;17.52;3.03;;;16.20;73.40;;;;;;4091228;29;20048;-89
2024/03/31 11:24:17;;;;;;;16.33;3.45;;;16.30;72.60;;;;;;4091833;29;20051;-88
2024/03/31 11:26:18;;;;;;;20.35;3.35;;;16.30;72.60;;;;;;4090662;29;20561;-89
2024/03/31 11:28:19;;;;;;;19.85;3.03;;;16.40;72.10;;;;;;4090405;29;20482;-89
2024/03/31 11:30:22;;;;;;;17.80;2.85;;;16.40;72.00;;;;;;4089229;29;20157;-89
2024/03/31 11:32:26;;;;;;;19.40;2.97;;;16.50;71.80;;;;;;4094000;29;20445;-91
2024/03/31 11:37:05;;;;;;;19.75;2.95;;;16.70;69.70;;;;;;4240427;28;20048;-89
2024/03/31 11:39:07;;;;;;;23.80;4.15;;;16.80;67.60;;;;;;4240263;28;20101;-89
2024/03/31 11:43:28;;;;;;;15.65;3.08;;;16.90;67.30;;;;;;4237064;28;20083;-90
2024/03/31 11:45:29;;;;;;;14.90;2.90;;;17.00;68.00;;;;;;4237797;28;20048;-89
2024/03/31 11:47:32;;;;;;;20.05;3.10;;;17.10;68.30;;;;;;4242244;28;20075;-89
2024/03/31 11:49:35;;;;;;;18.48;2.72;;;17.10;68.10;;;;;;4241174;28;20071;-88
2024/03/31 11:51:54;;;;;;;15.75;2.92;;;17.20;67.30;;;;;;4237994;28;20055;-91
2024/03/31 11:53:55;;;;;;;17.15;2.92;;;17.30;66.10;;;;;;4236440;28;20054;-89
2024/03/31 11:56:00;;;;;;;17.25;2.50;;;17.30;65.00;;;;;;4237551;28;20040;-89
2024/03/31 11:58:01;;;;;;;20.88;2.78;;;17.40;62.60;;;;;;4237432;28;20161;-89
2024/03/31 12:00:05;;;;;;;16.30;2.55;;;17.40;61.90;;;;;;4236222;28;20476;-89
2024/03/31 12:02:06;;;;;;;18.85;3.22;;;17.50;61.00;;;;;;4254473;27;20050;-89
2024/03/31 12:04:15;;;;;;;18.73;2.78;;;17.50;60.10;;;;;;4237239;28;20044;-90
2024/03/31 12:06:16;;;;;;;17.73;2.45;;;17.60;60.70;;;;;;4232898;28;20047;-89
2024/03/31 12:08:19;;;;;;;18.75;2.97;;;17.70;60.20;;;;;;4215038;28;20393;-88
2024/03/31 12:10:21;;;;;;;22.73;3.05;;;17.90;58.40;;;;;;4233431;28;20446;-88
2024/03/31 12:12:22;;;;;;;20.52;2.92;;;17.90;58.90;;;;;;4233094;28;20055;-89
2024/03/31 12:14:24;;;;;;;14.57;3.17;;;17.90;59.10;;;;;;4236138;28;20054;-90
2024/03/31 12:16:25;;;;;;;16.42;2.88;;;17.90;58.10;;;;;;4223430;28;20052;-90
2024/03/31 12:18:27;;;;;;;12.30;2.35;;;17.90;58.00;;;;;;4217675;28;20045;-89
2024/03/31 12:20:29;;;;;;;21.00;3.22;;;17.90;57.00;;;;;;4233022;28;20058;-91
2024/03/31 12:22:40;;;;;;;19.40;2.88;;;17.90;55.60;;;;;;4218291;28;20067;-89
2024/03/31 12:24:59;;;;;;;16.92;2.58;;;17.90;55.40;;;;;;4236687;28;20048;-90
2024/03/31 12:27:06;;;;;;;12.85;2.60;;;18.00;55.60;;;;;;4236719;28;20097;-88
2024/03/31 12:29:10;;;;;;;17.33;2.40;;;18.10;54.70;;;;;;4216658;28;20082;-88
2024/03/31 12:31:13;;;;;;;14.68;2.47;;;18.10;54.40;;;;;;4232576;28;20059;-87
2024/03/31 12:33:15;;;;;;;14.68;2.80;;;18.30;55.60;;;;;;4227150;28;20068;-88
2024/03/31 12:35:17;;;;;;;19.17;2.45;;;18.30;54.10;;;;;;4219775;28;20081;-89
2024/03/31 12:37:18;;;;;;;17.48;2.58;;;18.30;54.90;;;;;;4215784;28;20060;-89
2024/03/31 12:39:22;;;;;;;16.95;2.72;;;18.30;54.90;;;;;;4227462;28;20142;-89
2024/03/31 12:41:55;;;;;;;19.08;2.45;;;18.40;55.20;;;;;;4231693;28;20063;-89
2024/03/31 12:44:14;;;;;;;17.98;3.08;;;18.40;54.90;;;;;;4228669;28;20103;-89
2024/03/31 12:46:18;;;;;;;15.50;2.45;;;18.40;53.90;;;;;;4211954;28;20049;-90
2024/03/31 12:48:37;;;;;;;17.85;3.30;;;18.30;53.90;;;;;;4216159;28;20072;-89
2024/03/31 12:50:49;;;;;;;16.38;2.83;;;18.40;54.60;;;;;;4216099;28;20084;-87
2024/03/31 12:52:51;;;;;;;12.68;2.53;;;18.40;53.90;;;;;;4219159;28;20049;-89
2024/03/31 12:54:52;;;;;;;14.23;2.55;;;18.50;53.70;;;;;;4220537;28;20029;-87
2024/03/31 12:57:00;;;;;;;13.43;2.53;;;18.60;54.50;;;;;;4219897;28;20110;-88
2024/03/31 12:59:02;;;;;;;17.58;3.10;;;18.60;54.30;;;;;;4203060;28;20035;-88
2024/03/31 13:03:25;;;;;;;14.73;2.60;;;18.90;53.00;;;;;;4212143;28;20082;-90
2024/03/31 13:05:26;;;;;;;16.80;2.70;;;19.00;53.70;;;;;;4213868;28;20052;-90
2024/03/31 13:09:46;;;;;;;15.27;2.90;;;19.40;54.00;;;;;;4207423;28;20052;-88
2024/03/31 13:11:48;;;;;;;15.35;2.70;;;19.60;54.00;;;;;;4207387;28;20147;-90
2024/03/31 13:14:00;;;;;;;20.63;3.35;;;19.80;52.10;;;;;;4204819;28;20048;-89
2024/03/31 13:16:01;;;;;;;13.30;2.80;;;20.10;52.40;;;;;;4210803;28;20112;-90
2024/03/31 13:18:09;;;;;;;20.05;3.47;;;20.20;51.80;;;;;;4209013;28;20041;-88
2024/03/31 13:20:10;;;;;;;20.67;4.88;;;20.40;51.90;;;;;;4207842;28;20040;-90
2024/03/31 13:22:15;;;;;;;13.73;3.40;;;20.80;51.90;;;;;;4208607;28;20112;-88
2024/03/31 13:24:17;;;;;;;17.65;2.85;;;21.10;51.60;;;;;;4205488;28;20511;-90
2024/03/31 13:26:19;;;;;;;15.35;2.60;;;21.40;49.90;;;;;;4204871;28;20045;-88
2024/03/31 13:28:20;;;;;;;12.20;2.10;;;21.60;47.00;;;;;;4203769;28;20409;-89
2024/03/31 13:30:25;;;;;;;17.27;2.60;;;21.70;45.50;;;;;;4203592;28;20057;-89
2024/03/31 13:32:26;;;;;;;13.80;2.38;;;21.70;45.20;;;;;;4206602;28;20052;-89
2024/03/31 13:34:28;;;;;;;11.43;2.47;;;21.90;45.60;;;;;;4209058;28;20052;-91
2024/03/31 13:36:30;;;;;;;12.75;2.10;;;22.00;46.00;;;;;;4221373;28;20143;-89
2024/03/31 13:38:33;;;;;;;10.57;2.10;;;22.10;44.70;;;;;;4204288;28;20083;-90
2024/03/31 13:40:34;;;;;;;13.20;2.25;;;22.20;43.40;;;;;;4221335;28;20048;-89
2024/03/31 13:42:37;;;;;;;10.88;2.10;;;22.00;44.00;;;;;;4222397;28;20051;-90
2024/03/31 13:44:38;;;;;;;12.70;2.45;;;22.00;44.30;;;;;;4213552;28;20051;-89
2024/03/31 13:46:53;;;;;;;11.73;2.38;;;22.10;42.10;;;;;;4218150;28;20052;-89
2024/03/31 13:48:59;;;;;;;10.02;2.10;;;22.30;42.30;;;;;;4219424;28;20104;-89
2024/03/31 13:51:02;;;;;;;10.75;1.80;;;22.40;41.70;;;;;;4212666;28;20064;-90
2024/03/31 13:53:08;;;;;;;11.20;2.17;;;22.60;40.70;;;;;;4212915;28;20043;-90
2024/03/31 13:55:12;;;;;;;10.77;1.70;;;22.80;40.50;;;;;;4209628;28;20059;-90
2024/03/31 13:57:14;;;;;;;10.18;1.73;;;23.10;39.50;;;;;;4207398;28;20048;-90
2024/03/31 13:59:18;;;;;;;13.52;1.95;;;23.40;37.70;;;;;;4210234;28;20052;-90
2024/03/31 14:01:22;;;;;;;10.98;1.67;;;23.60;38.00;;;;;;4208500;28;20080;-90
2024/03/31 14:03:31;;;;;;;11.45;2.45;;;23.80;36.80;;;;;;4209818;28;20060;-92
2024/03/31 14:05:33;;;;;;;7.82;2.00;;;24.10;37.50;;;;;;4208632;28;20040;-90
2024/03/31 14:09:54;;;;;;;13.13;2.08;;;25.10;36.40;;;;;;4209206;28;20079;-89
2024/03/31 14:12:00;;;;;;;10.82;2.33;;;26.00;34.70;;;;;;4208936;28;20059;-89
2024/03/31 14:14:05;;;;;;;11.70;2.20;;;29.50;31.70;;;;;;4210323;28;20077;-90
2024/03/31 14:16:09;;;;;;;11.02;2.10;;;33.90;27.80;;;;;;4206505;28;20062;-88
2024/03/31 14:18:15;;;;;;;9.47;2.33;;;36.70;24.70;;;;;;4205640;28;20535;-91
2024/03/31 14:20:30;;;;;;;13.65;2.42;;;39.30;23.30;;;;;;4208227;28;20321;-90
2024/03/31 14:22:36;;;;;;;11.00;1.77;;;40.50;21.50;;;;;;4205320;28;20055;-89
2024/03/31 14:24:38;;;;;;;8.98;1.83;;;41.50;19.60;;;;;;4208007;28;20102;-88
2024/03/31 14:26:39;;;;;;;7.95;1.80;;;42.90;19.40;;;;;;4219578;28;20079;-76
2024/03/31 14:28:40;;;;;;;8.13;2.33;;;43.60;18.00;;;;;;4215755;28;20044;-77
2024/03/31 14:30:42;;;;;;;6.97;1.60;;;43.90;18.20;;;;;;4215663;28;20504;-76
2024/03/31 14:32:43;;;;;;;7.57;1.55;;;44.60;18.00;;;;;;4215945;28;20481;-78
2024/03/31 14:34:45;;;;;;;10.07;1.85;;;45.10;17.50;;;;;;4214755;28;20055;-76
2024/03/31 14:36:47;;;;;;;8.50;2.40;;;45.60;17.20;;;;;;4199928;28;20474;-76
2024/03/31 14:38:49;;;;;;;9.95;2.10;;;46.30;16.60;;;;;;4199537;28;20102;-77
2024/03/31 14:40:50;;;;;;;11.55;2.13;;;46.30;16.60;;;;;;4199346;28;20079;-78
2024/03/31 14:42:52;;;;;;;10.05;2.17;;;46.00;18.60;;;;;;4213335;28;20054;-76
2024/03/31 14:44:53;;;;;;;9.07;2.97;;;46.10;18.30;;;;;;4216685;28;20120;-77
2024/03/31 14:46:54;;;;;;;7.43;2.40;;;45.90;16.90;;;;;;4216081;28;20044;-76
2024/03/31 14:48:55;;;;;;;17.88;3.53;;;46.00;18.40;;;;;;4216160;28;20516;-78
2024/03/31 14:50:57;;;;;;;7.22;3.42;;;45.40;17.90;;;;;;4215618;28;20101;-76
2024/03/31 14:52:59;;;;;;;6.38;1.10;;;45.10;17.30;;;;;;4215844;28;20473;-77
2024/03/31 14:55:01;;;;;;;7.68;2.97;;;42.40;17.20;;;;;;4214751;28;20044;-76
2024/03/31 14:57:02;;;;;;;14.18;12.73;;;42.00;18.60;;;;;;4202988;28;20055;-76
2024/03/31 14:59:04;;;;;;;6.88;3.28;;;41.20;17.20;;;;;;4208923;28;20123;-75
2024/03/31 15:01:05;;;;;;;8.80;1.60;;;40.70;18.00;;;;;;4208795;28;20044;-75
2024/03/31 15:03:07;;;;;;;7.85;1.38;;;39.20;18.40;;;;;;4215969;28;20086;-76
2024/03/31 15:05:08;;;;;;;5.18;1.13;;;37.50;18.70;;;;;;4215185;28;20060;-77
2024/03/31 15:07:10;;;;;;;5.75;1.40;;;35.50;20.40;;;;;;4215465;28;20102;-76
2024/03/31 15:09:12;;;;;;;8.68;1.48;;;34.20;21.80;;;;;;4216108;28;20047;-78
2024/03/31 15:11:14;;;;;;;6.07;1.60;;;32.90;21.20;;;;;;4217059;28;20051;-77
2024/03/31 15:13:15;;;;;;;9.85;1.45;;;31.70;22.80;;;;;;4211436;28;20101;-75
2024/03/31 15:15:17;;;;;;;8.55;1.40;;;31.20;23.90;;;;;;4223862;28;20047;-75
2024/03/31 15:17:18;;;;;;;7.20;1.42;;;31.10;23.60;;;;;;4225889;28;20028;-79
2024/03/31 15:19:20;;;;;;;6.45;1.30;;;30.30;31.20;;;;;;4231001;28;20069;-84
2024/03/31 15:21:21;;;;;;;6.38;1.30;;;29.70;26.00;;;;;;4233548;28;20048;-83
2024/03/31 15:23:23;;;;;;;5.53;1.80;;;29.20;25.40;;;;;;4232567;28;20093;-84
2024/03/31 15:25:29;;;;;;;6.30;1.48;;;28.60;25.20;;;;;;4232157;28;20032;-88
2024/03/31 15:27:32;;;;;;;7.50;1.55;;;28.40;26.20;;;;;;4235124;28;20062;-86
2024/03/31 15:29:33;;;;;;;8.15;1.70;;;28.30;26.50;;;;;;4235088;28;20058;-88
2024/03/31 15:31:35;;;;;;;6.05;1.30;;;28.20;26.60;;;;;;4235265;28;20047;-88
2024/03/31 15:33:36;;;;;;;6.85;1.40;;;27.60;26.70;;;;;;4234298;28;20036;-87
2024/03/31 15:35:39;;;;;;;6.65;1.30;;;27.40;27.40;;;;;;4234994;28;20073;-87
2024/03/31 15:37:40;;;;;;;8.63;1.77;;;27.10;27.40;;;;;;4217325;28;20041;-90
2024/03/31 15:39:42;;;;;;;9.38;1.40;;;27.00;28.00;;;;;;4235388;28;20035;-88
2024/03/31 15:41:45;;;;;;;5.53;1.27;;;26.80;28.40;;;;;;4234078;28;20044;-89
2024/03/31 15:43:47;;;;;;;7.53;1.20;;;26.70;28.50;;;;;;4234635;28;20044;-89
2024/03/31 15:45:55;;;;;;;6.65;1.20;;;26.50;28.50;;;;;;4235620;28;20085;-90
2024/03/31 15:50:09;;;;;;;6.95;1.25;;;26.70;29.30;;;;;;4239586;22;20044;-91
2024/03/31 15:54:22;;;;;;;10.23;1.67;;;26.70;29.20;;;;;;4767733;22;20029;-89
2024/03/31 15:56:23;;;;;;;8.10;1.15;;;26.60;28.80;;;;;;4200384;28;20049;-89
2024/03/31 15:58:30;;;;;;;7.05;1.48;;;26.50;29.10;;;;;;4201164;28;20036;-89
2024/03/31 16:02:42;;;;;;;6.70;1.30;;;26.40;29.70;;;;;;4182200;28;20054;-89
2024/03/31 16:04:44;;;;;;;6.57;1.02;;;26.40;29.50;;;;;;4185222;28;20061;-89
2024/03/31 16:06:47;;;;;;;5.50;1.10;;;26.30;29.70;;;;;;4184410;28;20050;-89
2024/03/31 16:08:49;;;;;;;7.80;2.30;;;26.30;30.00;;;;;;4183317;28;20072;-90
2024/03/31 16:10:55;;;;;;;4.07;1.10;;;26.20;30.50;;;;;;4181750;28;20050;-86
2024/03/31 16:12:56;;;;;;;4.30;0.85;;;26.20;28.90;;;;;;4178604;28;20064;-84